Nampa, Canada
Current Conditions -  °F | °C
As of 1:18 PM on Thursday 23 Oct 2014 (Local Time) from CYPE Reporting Station
Broken Clouds Broken Clouds  
Wind Chill: 30°   Ceiling: 800
Heat Index: 37°   Visibility: 15mi
Dew Point: 34°   Wind: 10mph
Humidity: 87%   Direction: 360°N
Pressure: 29.43"   Gusts: 18mph
Location:  56.03°N, 117.12°W
Report Text: CYPE 231918Z 36009G16KT 15SM BKN008 BKN055 03/01 A2943 RMK SC5SC2 SLP990
Loading
Personal Weather Stations






























Interactive Weather Map
Tropical Storm Tracking
New forecast layout! Learn more

10-Day Weather Forecast

Advertisements
Track Severe Weather on mobile